sensor_id;sensor_type;location;lat;lon;timestamp;P1;durP1;ratioP1;P2;durP2;ratioP2
7263;SDS011;3673;52.480;13.348;2024-01-07T00:00:42;5.65;;;2.95;;
7263;SDS011;3673;52.480;13.348;2024-01-07T00:03:09;6.43;;;3.10;;
7263;SDS011;3673;52.480;13.348;2024-01-07T00:05:37;7.50;;;3.33;;
7263;SDS011;3673;52.480;13.348;2024-01-07T00:08:04;7.55;;;3.60;;
7263;SDS011;3673;52.480;13.348;2024-01-07T00:10:31;5.95;;;3.30;;
7263;SDS011;3673;52.480;13.348;2024-01-07T00:12:58;8.07;;;3.40;;
7263;SDS011;3673;52.480;13.348;2024-01-07T00:15:25;6.35;;;3.55;;
7263;SDS011;3673;52.480;13.348;2024-01-07T00:17:52;4.65;;;2.90;;
7263;SDS011;3673;52.480;13.348;2024-01-07T00:20:19;6.35;;;3.22;;
7263;SDS011;3673;52.480;13.348;2024-01-07T00:22:47;5.47;;;3.20;;
7263;SDS011;3673;52.480;13.348;2024-01-07T00:25:14;8.30;;;4.38;;
7263;SDS011;3673;52.480;13.348;2024-01-07T00:27:43;3.58;;;2.72;;
7263;SDS011;3673;52.480;13.348;2024-01-07T00:30:10;6.97;;;3.40;;
7263;SDS011;3673;52.480;13.348;2024-01-07T00:32:37;8.02;;;3.47;;
7263;SDS011;3673;52.480;13.348;2024-01-07T00:35:05;6.85;;;3.67;;
7263;SDS011;3673;52.480;13.348;2024-01-07T00:37:32;8.38;;;3.58;;
7263;SDS011;3673;52.480;13.348;2024-01-07T00:40:01;6.40;;;3.67;;
7263;SDS011;3673;52.480;13.348;2024-01-07T00:42:28;9.30;;;3.90;;
7263;SDS011;3673;52.480;13.348;2024-01-07T00:44:55;5.88;;;3.60;;
7263;SDS011;3673;52.480;13.348;2024-01-07T00:47:22;6.15;;;3.72;;
7263;SDS011;3673;52.480;13.348;2024-01-07T00:49:48;5.78;;;3.55;;
7263;SDS011;3673;52.480;13.348;2024-01-07T00:52:15;7.72;;;4.20;;
7263;SDS011;3673;52.480;13.348;2024-01-07T00:54:42;6.32;;;3.15;;
7263;SDS011;3673;52.480;13.348;2024-01-07T00:57:11;4.05;;;2.90;;
7263;SDS011;3673;52.480;13.348;2024-01-07T00:59:38;5.35;;;3.55;;
7263;SDS011;3673;52.480;13.348;2024-01-07T01:02:05;7.95;;;3.22;;
7263;SDS011;3673;52.480;13.348;2024-01-07T01:04:32;4.13;;;2.80;;
7263;SDS011;3673;52.480;13.348;2024-01-07T01:06:58;7.45;;;3.28;;
7263;SDS011;3673;52.480;13.348;2024-01-07T01:09:27;6.10;;;3.08;;
7263;SDS011;3673;52.480;13.348;2024-01-07T01:11:54;3.92;;;2.58;;
7263;SDS011;3673;52.480;13.348;2024-01-07T01:14:22;9.00;;;3.30;;
7263;SDS011;3673;52.480;13.348;2024-01-07T01:16:49;4.75;;;2.30;;
7263;SDS011;3673;52.480;13.348;2024-01-07T01:19:15;6.45;;;2.67;;
7263;SDS011;3673;52.480;13.348;2024-01-07T01:21:43;4.10;;;2.30;;
7263;SDS011;3673;52.480;13.348;2024-01-07T01:24:10;3.83;;;2.05;;
7263;SDS011;3673;52.480;13.348;2024-01-07T01:26:37;7.55;;;3.20;;
7263;SDS011;3673;52.480;13.348;2024-01-07T01:29:04;3.83;;;1.88;;
7263;SDS011;3673;52.480;13.348;2024-01-07T01:31:33;5.63;;;2.42;;
7263;SDS011;3673;52.480;13.348;2024-01-07T01:33:59;5.22;;;2.70;;
7263;SDS011;3673;52.480;13.348;2024-01-07T01:36:27;9.77;;;3.58;;
7263;SDS011;3673;52.480;13.348;2024-01-07T01:38:53;4.50;;;2.53;;
7263;SDS011;3673;52.480;13.348;2024-01-07T01:41:20;6.32;;;1.55;;
7263;SDS011;3673;52.480;13.348;2024-01-07T01:43:47;5.47;;;2.38;;
7263;SDS011;3673;52.480;13.348;2024-01-07T01:46:14;5.93;;;3.08;;
7263;SDS011;3673;52.480;13.348;2024-01-07T01:48:42;3.15;;;2.00;;
7263;SDS011;3673;52.480;13.348;2024-01-07T01:51:09;6.75;;;2.13;;
7263;SDS011;3673;52.480;13.348;2024-01-07T01:53:36;4.15;;;2.70;;
7263;SDS011;3673;52.480;13.348;2024-01-07T01:56:04;3.85;;;2.35;;
7263;SDS011;3673;52.480;13.348;2024-01-07T01:58:32;5.78;;;2.50;;
7263;SDS011;3673;52.480;13.348;2024-01-07T02:00:59;4.75;;;2.85;;
7263;SDS011;3673;52.480;13.348;2024-01-07T02:03:26;6.00;;;3.60;;
7263;SDS011;3673;52.480;13.348;2024-01-07T02:05:54;6.22;;;2.78;;
7263;SDS011;3673;52.480;13.348;2024-01-07T02:08:22;5.55;;;2.92;;
7263;SDS011;3673;52.480;13.348;2024-01-07T02:10:49;4.93;;;2.70;;
7263;SDS011;3673;52.480;13.348;2024-01-07T02:13:16;5.78;;;2.75;;
7263;SDS011;3673;52.480;13.348;2024-01-07T02:15:42;4.05;;;2.35;;
7263;SDS011;3673;52.480;13.348;2024-01-07T02:18:09;4.13;;;2.30;;
7263;SDS011;3673;52.480;13.348;2024-01-07T02:20:36;4.22;;;2.42;;
7263;SDS011;3673;52.480;13.348;2024-01-07T02:23:05;4.25;;;2.38;;
7263;SDS011;3673;52.480;13.348;2024-01-07T02:25:35;7.40;;;2.50;;
7263;SDS011;3673;52.480;13.348;2024-01-07T02:28:02;6.30;;;2.20;;
7263;SDS011;3673;52.480;13.348;2024-01-07T02:30:30;3.40;;;2.17;;
7263;SDS011;3673;52.480;13.348;2024-01-07T02:33:00;4.40;;;3.03;;
7263;SDS011;3673;52.480;13.348;2024-01-07T02:35:28;4.72;;;2.38;;
7263;SDS011;3673;52.480;13.348;2024-01-07T02:37:55;3.20;;;2.15;;
7263;SDS011;3673;52.480;13.348;2024-01-07T02:40:22;4.30;;;2.20;;
7263;SDS011;3673;52.480;13.348;2024-01-07T02:42:51;4.78;;;2.53;;
7263;SDS011;3673;52.480;13.348;2024-01-07T02:45:17;2.35;;;1.83;;
7263;SDS011;3673;52.480;13.348;2024-01-07T02:47:45;5.88;;;2.60;;
7263;SDS011;3673;52.480;13.348;2024-01-07T02:50:11;4.32;;;2.70;;
7263;SDS011;3673;52.480;13.348;2024-01-07T02:52:38;3.22;;;2.03;;
7263;SDS011;3673;52.480;13.348;2024-01-07T02:55:05;5.63;;;2.40;;
7263;SDS011;3673;52.480;13.348;2024-01-07T02:57:34;3.35;;;2.10;;
7263;SDS011;3673;52.480;13.348;2024-01-07T03:00:02;3.85;;;2.15;;
7263;SDS011;3673;52.480;13.348;2024-01-07T03:02:31;3.70;;;1.90;;
7263;SDS011;3673;52.480;13.348;2024-01-07T03:04:57;6.22;;;2.38;;
7263;SDS011;3673;52.480;13.348;2024-01-07T03:07:24;5.32;;;2.20;;
7263;SDS011;3673;52.480;13.348;2024-01-07T03:09:51;2.55;;;1.80;;
7263;SDS011;3673;52.480;13.348;2024-01-07T03:12:18;5.22;;;2.00;;
7263;SDS011;3673;52.480;13.348;2024-01-07T03:14:44;3.58;;;1.70;;
7263;SDS011;3673;52.480;13.348;2024-01-07T03:17:12;1.92;;;1.45;;
7263;SDS011;3673;52.480;13.348;2024-01-07T03:19:40;5.43;;;1.80;;
7263;SDS011;3673;52.480;13.348;2024-01-07T03:22:06;4.57;;;2.42;;
7263;SDS011;3673;52.480;13.348;2024-01-07T03:24:33;3.70;;;2.05;;
7263;SDS011;3673;52.480;13.348;2024-01-07T03:27:00;5.95;;;1.90;;
7263;SDS011;3673;52.480;13.348;2024-01-07T03:29:27;4.18;;;1.95;;
7263;SDS011;3673;52.480;13.348;2024-01-07T03:31:54;3.65;;;1.98;;
7263;SDS011;3673;52.480;13.348;2024-01-07T03:34:22;3.70;;;2.08;;
7263;SDS011;3673;52.480;13.348;2024-01-07T03:36:48;4.53;;;1.92;;
7263;SDS011;3673;52.480;13.348;2024-01-07T03:39:15;3.70;;;2.10;;
7263;SDS011;3673;52.480;13.348;2024-01-07T03:41:42;3.22;;;2.08;;
7263;SDS011;3673;52.480;13.348;2024-01-07T03:44:08;4.70;;;2.60;;
7263;SDS011;3673;52.480;13.348;2024-01-07T03:46:35;3.25;;;2.17;;
7263;SDS011;3673;52.480;13.348;2024-01-07T03:49:02;3.83;;;2.20;;
7263;SDS011;3673;52.480;13.348;2024-01-07T03:51:30;3.63;;;2.17;;
7263;SDS011;3673;52.480;13.348;2024-01-07T03:53:57;2.72;;;1.85;;
7263;SDS011;3673;52.480;13.348;2024-01-07T03:56:23;5.88;;;2.53;;
7263;SDS011;3673;52.480;13.348;2024-01-07T03:58:50;3.00;;;2.30;;
7263;SDS011;3673;52.480;13.348;2024-01-07T04:01:17;3.08;;;2.30;;
7263;SDS011;3673;52.480;13.348;2024-01-07T04:03:44;6.07;;;2.40;;
7263;SDS011;3673;52.480;13.348;2024-01-07T04:06:11;5.28;;;2.05;;
7263;SDS011;3673;52.480;13.348;2024-01-07T04:08:39;3.60;;;2.15;;
7263;SDS011;3673;52.480;13.348;2024-01-07T04:11:05;3.05;;;1.95;;
7263;SDS011;3673;52.480;13.348;2024-01-07T04:13:32;3.97;;;2.25;;
7263;SDS011;3673;52.480;13.348;2024-01-07T04:15:59;4.65;;;2.45;;
7263;SDS011;3673;52.480;13.348;2024-01-07T04:18:26;2.67;;;2.03;;
7263;SDS011;3673;52.480;13.348;2024-01-07T04:20:52;4.07;;;2.25;;
7263;SDS011;3673;52.480;13.348;2024-01-07T04:23:19;4.88;;;2.58;;
7263;SDS011;3673;52.480;13.348;2024-01-07T04:25:47;2.60;;;1.85;;
7263;SDS011;3673;52.480;13.348;2024-01-07T04:28:14;5.53;;;2.17;;
7263;SDS011;3673;52.480;13.348;2024-01-07T04:30:41;3.58;;;2.22;;
7263;SDS011;3673;52.480;13.348;2024-01-07T04:33:08;3.30;;;1.80;;
7263;SDS011;3673;52.480;13.348;2024-01-07T04:35:34;3.20;;;2.17;;
7263;SDS011;3673;52.480;13.348;2024-01-07T04:38:01;3.15;;;2.05;;
7263;SDS011;3673;52.480;13.348;2024-01-07T04:40:28;3.67;;;2.17;;
7263;SDS011;3673;52.480;13.348;2024-01-07T04:42:56;3.15;;;1.80;;
7263;SDS011;3673;52.480;13.348;2024-01-07T04:45:23;2.53;;;1.92;;
7263;SDS011;3673;52.480;13.348;2024-01-07T04:47:50;2.30;;;1.92;;
7263;SDS011;3673;52.480;13.348;2024-01-07T04:50:16;5.38;;;2.10;;
7263;SDS011;3673;52.480;13.348;2024-01-07T04:52:44;2.67;;;1.75;;
7263;SDS011;3673;52.480;13.348;2024-01-07T04:55:11;3.38;;;1.88;;
7263;SDS011;3673;52.480;13.348;2024-01-07T04:57:38;3.17;;;1.83;;
7263;SDS011;3673;52.480;13.348;2024-01-07T05:00:07;2.13;;;1.70;;
7263;SDS011;3673;52.480;13.348;2024-01-07T05:02:34;3.35;;;2.03;;
7263;SDS011;3673;52.480;13.348;2024-01-07T05:05:02;3.80;;;2.00;;
7263;SDS011;3673;52.480;13.348;2024-01-07T05:07:30;2.92;;;2.00;;
7263;SDS011;3673;52.480;13.348;2024-01-07T05:09:56;4.55;;;1.98;;
7263;SDS011;3673;52.480;13.348;2024-01-07T05:12:23;3.30;;;2.05;;
7263;SDS011;3673;52.480;13.348;2024-01-07T05:14:50;2.95;;;1.75;;
7263;SDS011;3673;52.480;13.348;2024-01-07T05:17:18;2.95;;;1.83;;
7263;SDS011;3673;52.480;13.348;2024-01-07T05:19:45;5.40;;;2.00;;
7263;SDS011;3673;52.480;13.348;2024-01-07T05:22:12;2.58;;;1.88;;
7263;SDS011;3673;52.480;13.348;2024-01-07T05:24:39;2.42;;;1.80;;
7263;SDS011;3673;52.480;13.348;2024-01-07T05:27:05;3.47;;;1.75;;
7263;SDS011;3673;52.480;13.348;2024-01-07T05:29:32;4.28;;;2.20;;
7263;SDS011;3673;52.480;13.348;2024-01-07T05:31:59;3.05;;;1.98;;
7263;SDS011;3673;52.480;13.348;2024-01-07T05:34:27;3.55;;;1.90;;
7263;SDS011;3673;52.480;13.348;2024-01-07T05:36:55;4.35;;;2.28;;
7263;SDS011;3673;52.480;13.348;2024-01-07T05:39:21;2.90;;;1.85;;
7263;SDS011;3673;52.480;13.348;2024-01-07T05:41:48;3.28;;;1.90;;
7263;SDS011;3673;52.480;13.348;2024-01-07T05:44:15;3.78;;;2.17;;
7263;SDS011;3673;52.480;13.348;2024-01-07T05:46:42;3.50;;;2.67;;
7263;SDS011;3673;52.480;13.348;2024-01-07T05:49:08;2.85;;;2.17;;
7263;SDS011;3673;52.480;13.348;2024-01-07T05:51:39;4.20;;;1.92;;
7263;SDS011;3673;52.480;13.348;2024-01-07T05:54:06;3.50;;;1.88;;
7263;SDS011;3673;52.480;13.348;2024-01-07T05:56:32;5.40;;;2.20;;
7263;SDS011;3673;52.480;13.348;2024-01-07T05:59:05;3.03;;;2.00;;
7263;SDS011;3673;52.480;13.348;2024-01-07T06:01:31;2.22;;;1.75;;
7263;SDS011;3673;52.480;13.348;2024-01-07T06:03:58;3.30;;;2.40;;
7263;SDS011;3673;52.480;13.348;2024-01-07T06:06:25;3.35;;;2.60;;
7263;SDS011;3673;52.480;13.348;2024-01-07T06:08:53;4.43;;;2.38;;
7263;SDS011;3673;52.480;13.348;2024-01-07T06:11:20;4.28;;;2.85;;
7263;SDS011;3673;52.480;13.348;2024-01-07T06:13:46;5.00;;;2.75;;
7263;SDS011;3673;52.480;13.348;2024-01-07T06:16:13;4.70;;;2.13;;
7263;SDS011;3673;52.480;13.348;2024-01-07T06:18:40;3.28;;;2.60;;
7263;SDS011;3673;52.480;13.348;2024-01-07T06:21:06;3.65;;;2.47;;
7263;SDS011;3673;52.480;13.348;2024-01-07T06:23:33;3.65;;;2.50;;
7263;SDS011;3673;52.480;13.348;2024-01-07T06:26:03;5.47;;;2.42;;
7263;SDS011;3673;52.480;13.348;2024-01-07T06:28:31;4.20;;;2.65;;
7263;SDS011;3673;52.480;13.348;2024-01-07T06:30:58;3.95;;;2.40;;
7263;SDS011;3673;52.480;13.348;2024-01-07T06:33:24;4.15;;;2.00;;
7263;SDS011;3673;52.480;13.348;2024-01-07T06:35:51;3.92;;;2.78;;
7263;SDS011;3673;52.480;13.348;2024-01-07T06:38:18;3.53;;;2.35;;
7263;SDS011;3673;52.480;13.348;2024-01-07T06:40:44;4.88;;;3.15;;
7263;SDS011;3673;52.480;13.348;2024-01-07T06:43:12;3.88;;;2.38;;
7263;SDS011;3673;52.480;13.348;2024-01-07T06:45:39;5.18;;;2.78;;
7263;SDS011;3673;52.480;13.348;2024-01-07T06:48:06;4.47;;;2.80;;
7263;SDS011;3673;52.480;13.348;2024-01-07T06:50:33;4.20;;;2.40;;
7263;SDS011;3673;52.480;13.348;2024-01-07T06:53:00;4.10;;;2.70;;
7263;SDS011;3673;52.480;13.348;2024-01-07T06:55:27;5.00;;;2.55;;
7263;SDS011;3673;52.480;13.348;2024-01-07T06:57:54;6.22;;;2.97;;
7263;SDS011;3673;52.480;13.348;2024-01-07T07:00:22;3.42;;;2.53;;
7263;SDS011;3673;52.480;13.348;2024-01-07T07:02:49;4.72;;;2.70;;
7263;SDS011;3673;52.480;13.348;2024-01-07T07:05:16;6.47;;;2.90;;
7263;SDS011;3673;52.480;13.348;2024-01-07T07:07:42;3.85;;;2.70;;
7263;SDS011;3673;52.480;13.348;2024-01-07T07:10:10;4.97;;;2.72;;
7263;SDS011;3673;52.480;13.348;2024-01-07T07:12:37;4.10;;;2.40;;
7263;SDS011;3673;52.480;13.348;2024-01-07T07:15:04;4.30;;;2.83;;
7263;SDS011;3673;52.480;13.348;2024-01-07T07:17:33;7.70;;;2.95;;
7263;SDS011;3673;52.480;13.348;2024-01-07T07:20:00;3.78;;;2.53;;
7263;SDS011;3673;52.480;13.348;2024-01-07T07:22:27;4.28;;;2.53;;
7263;SDS011;3673;52.480;13.348;2024-01-07T07:24:54;6.82;;;2.80;;
7263;SDS011;3673;52.480;13.348;2024-01-07T07:27:21;3.67;;;2.45;;
7263;SDS011;3673;52.480;13.348;2024-01-07T07:29:48;3.83;;;2.35;;
7263;SDS011;3673;52.480;13.348;2024-01-07T07:32:14;4.38;;;2.10;;
7263;SDS011;3673;52.480;13.348;2024-01-07T07:34:42;4.70;;;2.53;;
7263;SDS011;3673;52.480;13.348;2024-01-07T07:37:09;5.60;;;2.22;;
7263;SDS011;3673;52.480;13.348;2024-01-07T07:39:36;3.97;;;2.45;;
7263;SDS011;3673;52.480;13.348;2024-01-07T07:42:03;5.90;;;3.58;;
7263;SDS011;3673;52.480;13.348;2024-01-07T07:44:30;10.07;;;4.97;;
7263;SDS011;3673;52.480;13.348;2024-01-07T07:46:57;4.45;;;2.72;;
7263;SDS011;3673;52.480;13.348;2024-01-07T07:49:23;4.32;;;2.30;;
7263;SDS011;3673;52.480;13.348;2024-01-07T07:51:51;4.75;;;2.10;;
7263;SDS011;3673;52.480;13.348;2024-01-07T07:54:18;3.17;;;2.05;;
7263;SDS011;3673;52.480;13.348;2024-01-07T07:56:45;3.30;;;2.47;;
7263;SDS011;3673;52.480;13.348;2024-01-07T07:59:13;3.63;;;2.30;;
7263;SDS011;3673;52.480;13.348;2024-01-07T08:01:39;4.93;;;1.83;;
7263;SDS011;3673;52.480;13.348;2024-01-07T08:04:06;3.30;;;2.50;;
7263;SDS011;3673;52.480;13.348;2024-01-07T08:06:34;4.22;;;2.20;;
7263;SDS011;3673;52.480;13.348;2024-01-07T08:09:02;3.78;;;2.60;;
7263;SDS011;3673;52.480;13.348;2024-01-07T08:11:29;3.38;;;2.03;;
7263;SDS011;3673;52.480;13.348;2024-01-07T08:13:56;2.10;;;1.73;;
7263;SDS011;3673;52.480;13.348;2024-01-07T08:16:23;4.32;;;2.20;;
7263;SDS011;3673;52.480;13.348;2024-01-07T08:18:50;3.47;;;1.98;;
7263;SDS011;3673;52.480;13.348;2024-01-07T08:21:16;3.90;;;2.13;;
7263;SDS011;3673;52.480;13.348;2024-01-07T08:23:43;5.13;;;2.60;;
7263;SDS011;3673;52.480;13.348;2024-01-07T08:26:11;5.47;;;2.42;;
7263;SDS011;3673;52.480;13.348;2024-01-07T08:28:38;3.63;;;2.63;;
7263;SDS011;3673;52.480;13.348;2024-01-07T08:31:05;4.55;;;2.33;;
7263;SDS011;3673;52.480;13.348;2024-01-07T08:33:32;3.92;;;2.88;;
7263;SDS011;3673;52.480;13.348;2024-01-07T08:35:59;6.30;;;2.67;;
7263;SDS011;3673;52.480;13.348;2024-01-07T08:38:26;3.05;;;2.33;;
7263;SDS011;3673;52.480;13.348;2024-01-07T08:40:53;3.97;;;2.47;;
7263;SDS011;3673;52.480;13.348;2024-01-07T08:43:21;5.15;;;2.42;;
7263;SDS011;3673;52.480;13.348;2024-01-07T08:45:49;3.35;;;2.55;;
7263;SDS011;3673;52.480;13.348;2024-01-07T08:48:16;5.13;;;2.08;;
7263;SDS011;3673;52.480;13.348;2024-01-07T08:50:43;4.35;;;2.35;;
7263;SDS011;3673;52.480;13.348;2024-01-07T08:53:11;4.78;;;2.83;;
7263;SDS011;3673;52.480;13.348;2024-01-07T08:55:39;4.10;;;2.75;;
7263;SDS011;3673;52.480;13.348;2024-01-07T08:58:06;6.90;;;2.70;;
7263;SDS011;3673;52.480;13.348;2024-01-07T09:00:34;3.65;;;2.58;;
7263;SDS011;3673;52.480;13.348;2024-01-07T09:03:01;4.82;;;2.60;;
7263;SDS011;3673;52.480;13.348;2024-01-07T09:05:28;5.10;;;2.90;;
7263;SDS011;3673;52.480;13.348;2024-01-07T09:07:55;3.63;;;3.00;;
7263;SDS011;3673;52.480;13.348;2024-01-07T09:10:21;5.25;;;3.17;;
7263;SDS011;3673;52.480;13.348;2024-01-07T09:12:50;5.65;;;2.88;;
7263;SDS011;3673;52.480;13.348;2024-01-07T09:15:20;6.85;;;3.17;;
7263;SDS011;3673;52.480;13.348;2024-01-07T09:17:48;3.72;;;2.75;;
7263;SDS011;3673;52.480;13.348;2024-01-07T09:20:15;6.55;;;3.58;;
7263;SDS011;3673;52.480;13.348;2024-01-07T09:22:42;4.65;;;2.67;;
7263;SDS011;3673;52.480;13.348;2024-01-07T09:25:09;5.40;;;2.65;;
7263;SDS011;3673;52.480;13.348;2024-01-07T09:27:36;7.03;;;3.25;;
7263;SDS011;3673;52.480;13.348;2024-01-07T09:30:03;6.68;;;3.63;;
7263;SDS011;3673;52.480;13.348;2024-01-07T09:32:32;6.68;;;3.78;;
7263;SDS011;3673;52.480;13.348;2024-01-07T09:35:00;9.75;;;3.80;;
7263;SDS011;3673;52.480;13.348;2024-01-07T09:37:27;7.50;;;3.08;;
7263;SDS011;3673;52.480;13.348;2024-01-07T09:39:54;5.70;;;3.45;;
7263;SDS011;3673;52.480;13.348;2024-01-07T09:42:21;5.72;;;3.75;;
7263;SDS011;3673;52.480;13.348;2024-01-07T09:44:47;9.85;;;5.03;;
7263;SDS011;3673;52.480;13.348;2024-01-07T09:47:16;9.15;;;5.20;;
7263;SDS011;3673;52.480;13.348;2024-01-07T09:49:45;16.65;;;7.05;;
7263;SDS011;3673;52.480;13.348;2024-01-07T09:52:14;8.10;;;4.70;;
7263;SDS011;3673;52.480;13.348;2024-01-07T09:54:42;12.77;;;6.53;;
7263;SDS011;3673;52.480;13.348;2024-01-07T09:57:14;6.13;;;4.13;;
7263;SDS011;3673;52.480;13.348;2024-01-07T09:59:41;7.88;;;5.00;;
7263;SDS011;3673;52.480;13.348;2024-01-07T10:02:08;12.93;;;6.82;;
7263;SDS011;3673;52.480;13.348;2024-01-07T10:04:35;8.48;;;4.30;;
7263;SDS011;3673;52.480;13.348;2024-01-07T10:07:02;6.00;;;4.38;;
7263;SDS011;3673;52.480;13.348;2024-01-07T10:09:32;7.20;;;4.65;;
7263;SDS011;3673;52.480;13.348;2024-01-07T10:12:00;8.25;;;4.32;;
7263;SDS011;3673;52.480;13.348;2024-01-07T10:14:27;7.00;;;4.35;;
7263;SDS011;3673;52.480;13.348;2024-01-07T10:16:55;8.20;;;4.45;;
7263;SDS011;3673;52.480;13.348;2024-01-07T10:19:23;11.50;;;4.65;;
7263;SDS011;3673;52.480;13.348;2024-01-07T10:22:00;12.75;;;4.95;;
7263;SDS011;3673;52.480;13.348;2024-01-07T10:24:32;7.55;;;3.58;;
7263;SDS011;3673;52.480;13.348;2024-01-07T10:27:04;9.18;;;4.38;;
7263;SDS011;3673;52.480;13.348;2024-01-07T10:29:32;11.77;;;5.10;;
7263;SDS011;3673;52.480;13.348;2024-01-07T10:31:59;11.68;;;6.22;;
7263;SDS011;3673;52.480;13.348;2024-01-07T10:34:28;9.82;;;5.68;;
7263;SDS011;3673;52.480;13.348;2024-01-07T10:36:56;11.68;;;6.38;;
7263;SDS011;3673;52.480;13.348;2024-01-07T10:39:25;9.10;;;5.03;;
7263;SDS011;3673;52.480;13.348;2024-01-07T10:41:54;10.05;;;4.18;;
7263;SDS011;3673;52.480;13.348;2024-01-07T10:44:22;8.73;;;4.97;;
7263;SDS011;3673;52.480;13.348;2024-01-07T10:46:52;8.43;;;4.63;;
7263;SDS011;3673;52.480;13.348;2024-01-07T10:49:22;5.97;;;4.30;;
7263;SDS011;3673;52.480;13.348;2024-01-07T10:51:53;7.90;;;4.82;;
7263;SDS011;3673;52.480;13.348;2024-01-07T10:54:29;7.47;;;4.40;;
7263;SDS011;3673;52.480;13.348;2024-01-07T10:56:59;9.70;;;5.53;;
7263;SDS011;3673;52.480;13.348;2024-01-07T10:59:38;9.60;;;5.57;;
7263;SDS011;3673;52.480;13.348;2024-01-07T11:02:06;7.43;;;4.78;;
7263;SDS011;3673;52.480;13.348;2024-01-07T11:04:37;9.02;;;4.80;;
7263;SDS011;3673;52.480;13.348;2024-01-07T11:07:16;14.88;;;6.13;;
7263;SDS011;3673;52.480;13.348;2024-01-07T11:09:53;7.38;;;5.25;;
7263;SDS011;3673;52.480;13.348;2024-01-07T11:12:35;6.88;;;4.85;;
7263;SDS011;3673;52.480;13.348;2024-01-07T11:15:03;8.38;;;4.93;;
7263;SDS011;3673;52.480;13.348;2024-01-07T11:17:40;9.52;;;4.72;;
7263;SDS011;3673;52.480;13.348;2024-01-07T11:20:18;7.03;;;4.70;;
7263;SDS011;3673;52.480;13.348;2024-01-07T11:22:47;5.75;;;3.92;;
7263;SDS011;3673;52.480;13.348;2024-01-07T11:28:05;11.35;;;5.57;;
7263;SDS011;3673;52.480;13.348;2024-01-07T11:30:37;10.90;;;5.60;;
7263;SDS011;3673;52.480;13.348;2024-01-07T11:33:05;10.05;;;6.00;;
7263;SDS011;3673;52.480;13.348;2024-01-07T11:35:53;11.15;;;5.05;;
7263;SDS011;3673;52.480;13.348;2024-01-07T11:38:22;8.98;;;4.72;;
7263;SDS011;3673;52.480;13.348;2024-01-07T11:40:49;6.50;;;3.75;;
7263;SDS011;3673;52.480;13.348;2024-01-07T11:43:17;7.65;;;3.72;;
7263;SDS011;3673;52.480;13.348;2024-01-07T11:45:44;6.93;;;4.40;;
7263;SDS011;3673;52.480;13.348;2024-01-07T11:48:12;7.28;;;4.82;;
7263;SDS011;3673;52.480;13.348;2024-01-07T11:50:39;11.43;;;5.25;;
7263;SDS011;3673;52.480;13.348;2024-01-07T11:53:06;8.55;;;4.95;;
7263;SDS011;3673;52.480;13.348;2024-01-07T11:55:33;6.70;;;4.28;;
7263;SDS011;3673;52.480;13.348;2024-01-07T11:58:01;6.43;;;4.70;;
7263;SDS011;3673;52.480;13.348;2024-01-07T12:00:31;8.43;;;4.78;;
7263;SDS011;3673;52.480;13.348;2024-01-07T12:02:59;6.18;;;4.50;;
7263;SDS011;3673;52.480;13.348;2024-01-07T12:05:26;10.07;;;4.68;;
7263;SDS011;3673;52.480;13.348;2024-01-07T12:07:53;6.55;;;4.50;;
7263;SDS011;3673;52.480;13.348;2024-01-07T12:10:20;9.38;;;5.07;;
7263;SDS011;3673;52.480;13.348;2024-01-07T12:12:47;8.18;;;4.97;;
7263;SDS011;3673;52.480;13.348;2024-01-07T12:15:16;9.63;;;4.57;;
7263;SDS011;3673;52.480;13.348;2024-01-07T12:17:47;7.65;;;4.68;;
7263;SDS011;3673;52.480;13.348;2024-01-07T12:20:23;8.98;;;4.75;;
7263;SDS011;3673;52.480;13.348;2024-01-07T12:22:50;6.90;;;4.05;;
7263;SDS011;3673;52.480;13.348;2024-01-07T12:25:20;8.68;;;4.50;;
7263;SDS011;3673;52.480;13.348;2024-01-07T12:27:49;9.75;;;5.20;;
7263;SDS011;3673;52.480;13.348;2024-01-07T12:30:18;13.52;;;7.00;;
7263;SDS011;3673;52.480;13.348;2024-01-07T12:32:47;19.92;;;10.10;;
7263;SDS011;3673;52.480;13.348;2024-01-07T12:35:18;14.85;;;9.90;;
7263;SDS011;3673;52.480;13.348;2024-01-07T12:37:45;12.73;;;7.10;;
7263;SDS011;3673;52.480;13.348;2024-01-07T12:40:11;19.55;;;10.88;;
7263;SDS011;3673;52.480;13.348;2024-01-07T12:42:39;11.40;;;6.45;;
7263;SDS011;3673;52.480;13.348;2024-01-07T12:45:11;10.15;;;6.10;;
7263;SDS011;3673;52.480;13.348;2024-01-07T12:47:39;15.60;;;7.70;;
7263;SDS011;3673;52.480;13.348;2024-01-07T12:50:08;14.45;;;6.60;;
7263;SDS011;3673;52.480;13.348;2024-01-07T12:52:36;11.25;;;6.82;;
7263;SDS011;3673;52.480;13.348;2024-01-07T12:55:04;9.02;;;6.43;;
7263;SDS011;3673;52.480;13.348;2024-01-07T12:57:32;10.40;;;6.88;;
7263;SDS011;3673;52.480;13.348;2024-01-07T12:59:59;11.88;;;7.15;;
7263;SDS011;3673;52.480;13.348;2024-01-07T13:02:26;12.55;;;8.10;;
7263;SDS011;3673;52.480;13.348;2024-01-07T13:04:52;15.75;;;7.38;;
7263;SDS011;3673;52.480;13.348;2024-01-07T13:07:21;12.40;;;6.75;;
7263;SDS011;3673;52.480;13.348;2024-01-07T13:09:48;10.60;;;6.93;;
7263;SDS011;3673;52.480;13.348;2024-01-07T13:12:14;14.43;;;8.52;;
7263;SDS011;3673;52.480;13.348;2024-01-07T13:14:41;12.57;;;7.72;;
7263;SDS011;3673;52.480;13.348;2024-01-07T13:17:08;9.20;;;6.00;;
7263;SDS011;3673;52.480;13.348;2024-01-07T13:19:35;10.30;;;6.05;;
7263;SDS011;3673;52.480;13.348;2024-01-07T13:22:02;14.93;;;8.00;;
7263;SDS011;3673;52.480;13.348;2024-01-07T13:24:31;7.95;;;5.45;;
7263;SDS011;3673;52.480;13.348;2024-01-07T13:26:57;8.43;;;6.00;;
7263;SDS011;3673;52.480;13.348;2024-01-07T13:29:24;5.93;;;4.32;;
7263;SDS011;3673;52.480;13.348;2024-01-07T13:31:51;18.65;;;10.98;;
7263;SDS011;3673;52.480;13.348;2024-01-07T13:34:18;15.93;;;7.88;;
7263;SDS011;3673;52.480;13.348;2024-01-07T13:36:44;9.50;;;6.10;;
7263;SDS011;3673;52.480;13.348;2024-01-07T13:39:11;9.32;;;5.63;;
7263;SDS011;3673;52.480;13.348;2024-01-07T13:41:39;12.30;;;6.10;;
7263;SDS011;3673;52.480;13.348;2024-01-07T13:44:06;9.50;;;5.90;;
7263;SDS011;3673;52.480;13.348;2024-01-07T13:46:42;8.73;;;6.07;;
7263;SDS011;3673;52.480;13.348;2024-01-07T13:49:10;9.15;;;5.53;;
7263;SDS011;3673;52.480;13.348;2024-01-07T13:51:37;13.57;;;6.93;;
7263;SDS011;3673;52.480;13.348;2024-01-07T13:54:04;15.57;;;8.48;;
7263;SDS011;3673;52.480;13.348;2024-01-07T13:56:32;14.75;;;8.68;;
7263;SDS011;3673;52.480;13.348;2024-01-07T13:59:02;18.70;;;10.48;;
7263;SDS011;3673;52.480;13.348;2024-01-07T14:01:29;22.77;;;12.35;;
7263;SDS011;3673;52.480;13.348;2024-01-07T14:03:55;18.27;;;10.13;;
7263;SDS011;3673;52.480;13.348;2024-01-07T14:06:22;17.48;;;9.60;;
7263;SDS011;3673;52.480;13.348;2024-01-07T14:08:49;16.60;;;9.90;;
7263;SDS011;3673;52.480;13.348;2024-01-07T14:11:17;10.75;;;5.32;;
7263;SDS011;3673;52.480;13.348;2024-01-07T14:13:44;7.20;;;4.47;;
7263;SDS011;3673;52.480;13.348;2024-01-07T14:16:12;11.13;;;6.57;;
7263;SDS011;3673;52.480;13.348;2024-01-07T14:18:39;13.57;;;7.60;;
7263;SDS011;3673;52.480;13.348;2024-01-07T14:21:06;11.38;;;5.72;;
7263;SDS011;3673;52.480;13.348;2024-01-07T14:23:34;10.70;;;5.93;;
7263;SDS011;3673;52.480;13.348;2024-01-07T14:26:01;11.65;;;6.93;;
7263;SDS011;3673;52.480;13.348;2024-01-07T14:28:28;9.30;;;6.45;;
7263;SDS011;3673;52.480;13.348;2024-01-07T14:30:55;13.88;;;7.93;;
7263;SDS011;3673;52.480;13.348;2024-01-07T14:33:24;9.38;;;5.78;;
7263;SDS011;3673;52.480;13.348;2024-01-07T14:35:51;9.43;;;5.00;;
7263;SDS011;3673;52.480;13.348;2024-01-07T14:38:17;9.07;;;5.43;;
7263;SDS011;3673;52.480;13.348;2024-01-07T14:40:44;11.82;;;5.68;;
7263;SDS011;3673;52.480;13.348;2024-01-07T14:43:11;12.07;;;6.45;;
7263;SDS011;3673;52.480;13.348;2024-01-07T14:45:39;15.45;;;9.20;;
7263;SDS011;3673;52.480;13.348;2024-01-07T14:48:06;12.05;;;6.15;;
7263;SDS011;3673;52.480;13.348;2024-01-07T14:50:34;13.30;;;6.53;;
7263;SDS011;3673;52.480;13.348;2024-01-07T14:53:01;12.88;;;6.85;;
7263;SDS011;3673;52.480;13.348;2024-01-07T14:55:28;15.82;;;8.10;;
7263;SDS011;3673;52.480;13.348;2024-01-07T14:57:55;9.65;;;5.78;;
7263;SDS011;3673;52.480;13.348;2024-01-07T15:00:22;12.50;;;8.23;;
7263;SDS011;3673;52.480;13.348;2024-01-07T15:02:49;12.60;;;6.80;;